sensor_id;sensor_type;location;lat;lon;timestamp;pressure;altitude;pressure_sealevel;temperature;humidity
26859;BME280;14429;48.346;16.338;2023-04-05T00:01:48;100425.94;;;12.09;41.42
26859;BME280;14429;48.346;16.338;2023-04-05T00:04:13;100426.72;;;12.11;41.34
26859;BME280;14429;48.346;16.338;2023-04-05T00:06:39;100424.91;;;12.12;41.27
26859;BME280;14429;48.346;16.338;2023-04-05T00:09:04;100420.53;;;12.11;41.25
26859;BME280;14429;48.346;16.338;2023-04-05T00:11:32;100418.03;;;12.08;41.40
26859;BME280;14429;48.346;16.338;2023-04-05T00:14:01;100416.31;;;12.07;41.41
26859;BME280;14429;48.346;16.338;2023-04-05T00:16:28;100419.06;;;12.05;41.53
26859;BME280;14429;48.346;16.338;2023-04-05T00:18:55;100420.91;;;12.05;41.27
26859;BME280;14429;48.346;16.338;2023-04-05T00:21:21;100420.13;;;12.03;41.45
26859;BME280;14429;48.346;16.338;2023-04-05T00:23:47;100414.78;;;12.03;41.35
26859;BME280;14429;48.346;16.338;2023-04-05T00:26:12;100421.84;;;12.04;41.27
26859;BME280;14429;48.346;16.338;2023-04-05T00:28:39;100407.72;;;12.02;41.37
26859;BME280;14429;48.346;16.338;2023-04-05T00:31:05;100411.34;;;12.01;41.36
26859;BME280;14429;48.346;16.338;2023-04-05T00:33:30;100402.56;;;11.99;41.36
26859;BME280;14429;48.346;16.338;2023-04-05T00:35:56;100408.69;;;12.01;41.39
26859;BME280;14429;48.346;16.338;2023-04-05T00:38:21;100415.19;;;11.97;41.49
26859;BME280;14429;48.346;16.338;2023-04-05T00:40:47;100403.44;;;11.99;41.37
26859;BME280;14429;48.346;16.338;2023-04-05T00:43:13;100416.03;;;11.97;41.41
26859;BME280;14429;48.346;16.338;2023-04-05T00:45:40;100414.22;;;11.98;41.41
26859;BME280;14429;48.346;16.338;2023-04-05T00:48:06;100410.00;;;11.94;41.38
26859;BME280;14429;48.346;16.338;2023-04-05T00:50:32;100418.81;;;11.96;41.36
26859;BME280;14429;48.346;16.338;2023-04-05T00:52:57;100413.09;;;11.88;41.52
26859;BME280;14429;48.346;16.338;2023-04-05T00:55:23;100416.28;;;11.65;40.16
26859;BME280;14429;48.346;16.338;2023-04-05T00:57:48;100403.34;;;11.87;41.45
26859;BME280;14429;48.346;16.338;2023-04-05T01:00:14;100410.50;;;11.86;41.57
26859;BME280;14429;48.346;16.338;2023-04-05T01:02:44;100405.84;;;11.62;40.47
26859;BME280;14429;48.346;16.338;2023-04-05T01:05:20;100410.59;;;11.85;41.46
26859;BME280;14429;48.346;16.338;2023-04-05T01:07:55;100398.19;;;11.84;41.36
26859;BME280;14429;48.346;16.338;2023-04-05T01:10:27;100398.19;;;11.84;41.52
26859;BME280;14429;48.346;16.338;2023-04-05T01:12:55;100409.56;;;11.74;41.67
26859;BME280;14429;48.346;16.338;2023-04-05T01:15:20;100404.63;;;11.39;41.30
26859;BME280;14429;48.346;16.338;2023-04-05T01:17:47;100407.72;;;11.60;41.80
26859;BME280;14429;48.346;16.338;2023-04-05T01:20:13;100399.72;;;10.89;37.46
26859;BME280;14429;48.346;16.338;2023-04-05T01:23:04;100409.03;;;11.54;42.14
26859;BME280;14429;48.346;16.338;2023-04-05T01:25:44;100405.41;;;11.41;42.14
26859;BME280;14429;48.346;16.338;2023-04-05T01:28:39;100407.69;;;11.47;42.08
26859;BME280;14429;48.346;16.338;2023-04-05T01:31:07;100410.38;;;11.60;41.89
26859;BME280;14429;48.346;16.338;2023-04-05T01:33:43;100404.88;;;11.63;41.75
26859;BME280;14429;48.346;16.338;2023-04-05T01:36:17;100399.16;;;11.69;41.73
26859;BME280;14429;48.346;16.338;2023-04-05T01:38:49;100400.09;;;11.68;41.73
26859;BME280;14429;48.346;16.338;2023-04-05T01:41:15;100398.28;;;11.69;41.68
26859;BME280;14429;48.346;16.338;2023-04-05T01:43:40;100399.16;;;11.69;41.75
26859;BME280;14429;48.346;16.338;2023-04-05T01:46:07;100397.22;;;11.71;41.74
26859;BME280;14429;48.346;16.338;2023-04-05T01:48:33;100405.44;;;11.68;41.74
26859;BME280;14429;48.346;16.338;2023-04-05T01:50:58;100402.88;;;11.67;41.73
26859;BME280;14429;48.346;16.338;2023-04-05T01:53:23;100402.75;;;11.68;41.68
26859;BME280;14429;48.346;16.338;2023-04-05T01:55:49;100395.72;;;11.67;41.65
26859;BME280;14429;48.346;16.338;2023-04-05T01:58:14;100404.28;;;11.72;41.47
26859;BME280;14429;48.346;16.338;2023-04-05T02:00:40;100406.22;;;11.70;41.68
26859;BME280;14429;48.346;16.338;2023-04-05T02:03:07;100405.34;;;11.70;41.60
26859;BME280;14429;48.346;16.338;2023-04-05T02:05:32;100410.03;;;11.66;41.73
26859;BME280;14429;48.346;16.338;2023-04-05T02:07:57;100408.88;;;11.70;41.67
26859;BME280;14429;48.346;16.338;2023-04-05T02:10:23;100408.88;;;11.70;41.41
26859;BME280;14429;48.346;16.338;2023-04-05T02:12:49;100407.25;;;11.68;41.68
26859;BME280;14429;48.346;16.338;2023-04-05T02:15:14;100408.28;;;11.65;41.63
26859;BME280;14429;48.346;16.338;2023-04-05T02:17:40;100401.22;;;11.64;41.66
26859;BME280;14429;48.346;16.338;2023-04-05T02:20:08;100402.94;;;11.65;41.71
26859;BME280;14429;48.346;16.338;2023-04-05T02:22:33;100396.56;;;11.68;41.56
26859;BME280;14429;48.346;16.338;2023-04-05T02:24:59;100404.75;;;11.65;41.67
26859;BME280;14429;48.346;16.338;2023-04-05T02:27:24;100397.81;;;11.62;41.67
26859;BME280;14429;48.346;16.338;2023-04-05T02:29:50;100395.03;;;11.64;41.60
26859;BME280;14429;48.346;16.338;2023-04-05T02:32:15;100401.41;;;11.61;41.63
26859;BME280;14429;48.346;16.338;2023-04-05T02:34:40;100387.59;;;11.41;41.89
26859;BME280;14429;48.346;16.338;2023-04-05T02:37:07;100390.47;;;11.52;41.87
26859;BME280;14429;48.346;16.338;2023-04-05T02:39:33;100384.09;;;11.55;41.82
26859;BME280;14429;48.346;16.338;2023-04-05T02:41:58;100386.66;;;11.56;41.68
26859;BME280;14429;48.346;16.338;2023-04-05T02:44:24;100387.69;;;11.54;41.75
26859;BME280;14429;48.346;16.338;2023-04-05T02:46:49;100389.41;;;11.55;41.88
26859;BME280;14429;48.346;16.338;2023-04-05T02:49:15;100377.78;;;11.56;41.65
26859;BME280;14429;48.346;16.338;2023-04-05T02:51:40;100380.63;;;11.53;41.81
26859;BME280;14429;48.346;16.338;2023-04-05T02:54:07;100383.88;;;11.57;41.80
26859;BME280;14429;48.346;16.338;2023-04-05T02:56:32;100393.03;;;11.54;41.65
26859;BME280;14429;48.346;16.338;2023-04-05T02:58:58;100380.81;;;11.50;41.89
26859;BME280;14429;48.346;16.338;2023-04-05T03:01:23;100385.97;;;11.53;41.63
26859;BME280;14429;48.346;16.338;2023-04-05T03:03:49;100382.34;;;11.54;41.70
26859;BME280;14429;48.346;16.338;2023-04-05T03:06:14;100377.22;;;11.51;41.79
26859;BME280;14429;48.346;16.338;2023-04-05T03:08:41;100383.47;;;11.50;41.82
26859;BME280;14429;48.346;16.338;2023-04-05T03:11:08;100376.78;;;11.43;41.71
26859;BME280;14429;48.346;16.338;2023-04-05T03:13:34;100376.44;;;11.49;41.79
26859;BME280;14429;48.346;16.338;2023-04-05T03:15:59;100378.25;;;11.48;41.79
26859;BME280;14429;48.346;16.338;2023-04-05T03:18:24;100377.22;;;11.51;41.65
26859;BME280;14429;48.346;16.338;2023-04-05T03:20:50;100379.56;;;11.12;38.42
26859;BME280;14429;48.346;16.338;2023-04-05T03:23:15;100371.75;;;11.38;41.84
26859;BME280;14429;48.346;16.338;2023-04-05T03:25:41;100377.69;;;11.43;41.89
26859;BME280;14429;48.346;16.338;2023-04-05T03:28:08;100371.56;;;11.41;41.82
26859;BME280;14429;48.346;16.338;2023-04-05T03:30:33;100382.91;;;11.45;41.75
26859;BME280;14429;48.346;16.338;2023-04-05T03:32:58;100373.03;;;11.18;40.08
26859;BME280;14429;48.346;16.338;2023-04-05T03:35:24;100380.00;;;11.34;42.02
26859;BME280;14429;48.346;16.338;2023-04-05T03:37:49;100379.47;;;11.43;41.80
26859;BME280;14429;48.346;16.338;2023-04-05T03:40:15;100371.66;;;11.40;41.75
26859;BME280;14429;48.346;16.338;2023-04-05T03:42:40;100373.28;;;11.42;41.83
26859;BME280;14429;48.346;16.338;2023-04-05T03:45:08;100376.03;;;11.41;41.79
26859;BME280;14429;48.346;16.338;2023-04-05T03:47:34;100383.47;;;11.36;41.77
26859;BME280;14429;48.346;16.338;2023-04-05T03:49:59;100382.25;;;11.41;41.77
26859;BME280;14429;48.346;16.338;2023-04-05T03:52:24;100379.69;;;11.40;41.72
26859;BME280;14429;48.346;16.338;2023-04-05T03:54:50;100384.81;;;11.43;41.65
26859;BME280;14429;48.346;16.338;2023-04-05T03:57:15;100381.56;;;11.38;41.74
26859;BME280;14429;48.346;16.338;2023-04-05T03:59:41;100377.34;;;11.34;41.87
26859;BME280;14429;48.346;16.338;2023-04-05T04:02:07;100378.13;;;11.36;41.81
26859;BME280;14429;48.346;16.338;2023-04-05T04:04:33;100378.13;;;11.36;41.65
26859;BME280;14429;48.346;16.338;2023-04-05T04:06:58;100381.94;;;11.32;41.76
26859;BME280;14429;48.346;16.338;2023-04-05T04:09:24;100380.84;;;11.34;41.88
26859;BME280;14429;48.346;16.338;2023-04-05T04:11:49;100380.97;;;11.33;41.89
26859;BME280;14429;48.346;16.338;2023-04-05T04:14:14;100385.09;;;11.09;39.92
26859;BME280;14429;48.346;16.338;2023-04-05T04:16:40;100375.41;;;11.22;41.97
26859;BME280;14429;48.346;16.338;2023-04-05T04:19:07;100385.53;;;11.17;41.46
26859;BME280;14429;48.346;16.338;2023-04-05T04:21:32;100376.78;;;11.29;41.86
26859;BME280;14429;48.346;16.338;2023-04-05T04:23:58;100380.31;;;11.01;41.63
26859;BME280;14429;48.346;16.338;2023-04-05T04:26:23;100372.03;;;10.76;37.88
26859;BME280;14429;48.346;16.338;2023-04-05T04:28:49;100375.56;;;11.05;42.20
26859;BME280;14429;48.346;16.338;2023-04-05T04:31:14;100373.88;;;11.18;42.05
26859;BME280;14429;48.346;16.338;2023-04-05T04:33:39;100373.50;;;11.24;41.85
26859;BME280;14429;48.346;16.338;2023-04-05T04:36:08;100381.31;;;11.13;41.97
26859;BME280;14429;48.346;16.338;2023-04-05T04:38:33;100372.19;;;11.17;42.00
26859;BME280;14429;48.346;16.338;2023-04-05T04:40:59;100383.31;;;10.06;34.20
26859;BME280;14429;48.346;16.338;2023-04-05T04:43:24;100381.59;;;10.80;42.76
26859;BME280;14429;48.346;16.338;2023-04-05T04:45:50;100374.22;;;10.99;42.39
26859;BME280;14429;48.346;16.338;2023-04-05T04:48:16;100374.81;;;11.03;42.17
26859;BME280;14429;48.346;16.338;2023-04-05T04:50:41;100373.31;;;11.13;42.07
26859;BME280;14429;48.346;16.338;2023-04-05T04:53:09;100373.88;;;11.18;41.92
26859;BME280;14429;48.346;16.338;2023-04-05T04:55:34;100382.03;;;11.02;40.67
26859;BME280;14429;48.346;16.338;2023-04-05T04:58:00;100375.31;;;11.10;42.04
26859;BME280;14429;48.346;16.338;2023-04-05T05:00:25;100378.91;;;11.09;42.17
26859;BME280;14429;48.346;16.338;2023-04-05T05:02:51;100371.44;;;10.71;39.73
26859;BME280;14429;48.346;16.338;2023-04-05T05:05:17;100375.41;;;10.64;40.89
26859;BME280;14429;48.346;16.338;2023-04-05T05:07:43;100376.28;;;10.80;42.48
26859;BME280;14429;48.346;16.338;2023-04-05T05:10:10;100380.31;;;11.01;42.22
26859;BME280;14429;48.346;16.338;2023-04-05T05:12:36;100375.19;;;11.11;42.08
26859;BME280;14429;48.346;16.338;2023-04-05T05:15:02;100376.91;;;11.12;42.16
26859;BME280;14429;48.346;16.338;2023-04-05T05:17:27;100381.16;;;10.28;38.27
26859;BME280;14429;48.346;16.338;2023-04-05T05:19:53;100378.97;;;10.94;42.53
26859;BME280;14429;48.346;16.338;2023-04-05T05:22:19;100376.50;;;11.04;42.22
26859;BME280;14429;48.346;16.338;2023-04-05T05:24:44;100375.38;;;11.08;42.11
26859;BME280;14429;48.346;16.338;2023-04-05T05:27:11;100377.69;;;11.14;42.07
26859;BME280;14429;48.346;16.338;2023-04-05T05:29:37;100374.25;;;11.12;41.99
26859;BME280;14429;48.346;16.338;2023-04-05T05:32:02;100371.41;;;11.15;41.92
26859;BME280;14429;48.346;16.338;2023-04-05T05:34:28;100368.44;;;11.20;41.77
26859;BME280;14429;48.346;16.338;2023-04-05T05:36:53;100369.28;;;11.20;41.73
26859;BME280;14429;48.346;16.338;2023-04-05T05:39:19;100372.72;;;11.08;41.80
26859;BME280;14429;48.346;16.338;2023-04-05T05:41:45;100371.19;;;11.04;42.07
26859;BME280;14429;48.346;16.338;2023-04-05T05:44:12;100377.06;;;10.96;41.52
26859;BME280;14429;48.346;16.338;2023-04-05T05:46:37;100365.09;;;11.16;41.83
26859;BME280;14429;48.346;16.338;2023-04-05T05:49:03;100361.50;;;11.17;41.73
26859;BME280;14429;48.346;16.338;2023-04-05T05:51:28;100378.03;;;11.08;41.90
26859;BME280;14429;48.346;16.338;2023-04-05T05:53:54;100370.44;;;11.16;41.70
26859;BME280;14429;48.346;16.338;2023-04-05T05:56:19;100362.25;;;11.19;41.69
26859;BME280;14429;48.346;16.338;2023-04-05T05:58:45;100365.69;;;11.21;41.74
26859;BME280;14429;48.346;16.338;2023-04-05T06:01:11;100363.78;;;11.23;41.71
26859;BME280;14429;48.346;16.338;2023-04-05T06:03:37;100375.31;;;10.37;37.42
26859;BME280;14429;48.346;16.338;2023-04-05T06:06:02;100384.84;;;10.10;42.37
26859;BME280;14429;48.346;16.338;2023-04-05T06:08:28;100380.81;;;10.78;42.48
26859;BME280;14429;48.346;16.338;2023-04-05T06:10:53;100375.88;;;10.86;42.17
26859;BME280;14429;48.346;16.338;2023-04-05T06:13:19;100384.22;;;10.51;39.27
26859;BME280;14429;48.346;16.338;2023-04-05T06:15:46;100386.91;;;10.36;40.02
26859;BME280;14429;48.346;16.338;2023-04-05T06:18:13;100395.25;;;9.99;40.68
26859;BME280;14429;48.346;16.338;2023-04-05T06:20:38;100387.16;;;10.16;37.34
26859;BME280;14429;48.346;16.338;2023-04-05T06:23:04;100396.22;;;9.82;43.28
26859;BME280;14429;48.346;16.338;2023-04-05T06:25:29;100392.44;;;9.39;35.43
26859;BME280;14429;48.346;16.338;2023-04-05T06:27:55;100386.91;;;10.36;43.24
26859;BME280;14429;48.346;16.338;2023-04-05T06:30:20;100392.50;;;9.69;36.94
26859;BME280;14429;48.346;16.338;2023-04-05T06:32:46;100391.09;;;10.55;42.89
26859;BME280;14429;48.346;16.338;2023-04-05T06:35:12;100387.84;;;10.79;42.37
26859;BME280;14429;48.346;16.338;2023-04-05T06:37:38;100390.44;;;10.21;39.51
26859;BME280;14429;48.346;16.338;2023-04-05T06:40:04;100384.38;;;10.63;43.02
26859;BME280;14429;48.346;16.338;2023-04-05T06:42:30;100387.09;;;10.77;41.90
26859;BME280;14429;48.346;16.338;2023-04-05T06:44:55;100380.72;;;10.79;41.31
26859;BME280;14429;48.346;16.338;2023-04-05T06:47:21;100381.06;;;10.14;35.10
26859;BME280;14429;48.346;16.338;2023-04-05T06:49:46;100383.81;;;9.97;35.85
26859;BME280;14429;48.346;16.338;2023-04-05T06:52:13;100391.03;;;9.79;35.55
26859;BME280;14429;48.346;16.338;2023-04-05T06:54:38;100396.91;;;10.17;41.44
26859;BME280;14429;48.346;16.338;2023-04-05T06:57:04;100394.28;;;10.31;39.53
26859;BME280;14429;48.346;16.338;2023-04-05T06:59:29;100389.53;;;10.66;40.73
26859;BME280;14429;48.346;16.338;2023-04-05T07:01:55;100387.50;;;10.41;38.15
26859;BME280;14429;48.346;16.338;2023-04-05T07:04:20;100389.38;;;10.39;41.15
26859;BME280;14429;48.346;16.338;2023-04-05T07:06:46;100382.72;;;10.61;41.22
26859;BME280;14429;48.346;16.338;2023-04-05T07:09:12;100385.25;;;10.49;41.02
26859;BME280;14429;48.346;16.338;2023-04-05T07:11:38;100395.06;;;10.48;41.30
26859;BME280;14429;48.346;16.338;2023-04-05T07:14:03;100394.03;;;10.50;36.57
26859;BME280;14429;48.346;16.338;2023-04-05T07:16:29;100397.38;;;10.39;41.47
26859;BME280;14429;48.346;16.338;2023-04-05T07:18:55;100397.16;;;10.43;41.55
26859;BME280;14429;48.346;16.338;2023-04-05T07:21:21;100393.84;;;10.53;40.96
26859;BME280;14429;48.346;16.338;2023-04-05T07:23:46;100390.69;;;10.76;41.11
26859;BME280;14429;48.346;16.338;2023-04-05T07:26:13;100386.78;;;10.68;40.86
26859;BME280;14429;48.346;16.338;2023-04-05T07:28:38;100388.09;;;10.90;40.69
26859;BME280;14429;48.346;16.338;2023-04-05T07:31:05;100390.88;;;10.88;40.53
26859;BME280;14429;48.346;16.338;2023-04-05T07:33:31;100385.81;;;10.98;40.67
26859;BME280;14429;48.346;16.338;2023-04-05T07:35:56;100388.50;;;10.98;40.06
26859;BME280;14429;48.346;16.338;2023-04-05T07:38:22;100385.47;;;11.03;39.89
26859;BME280;14429;48.346;16.338;2023-04-05T07:40:47;100384.13;;;10.97;40.01
26859;BME280;14429;48.346;16.338;2023-04-05T07:43:14;100390.44;;;11.09;40.12
26859;BME280;14429;48.346;16.338;2023-04-05T07:45:40;100373.88;;;11.18;40.11
26859;BME280;14429;48.346;16.338;2023-04-05T07:48:05;100384.78;;;10.71;34.61
26859;BME280;14429;48.346;16.338;2023-04-05T07:50:31;100379.50;;;10.41;40.64
26859;BME280;14429;48.346;16.338;2023-04-05T07:52:58;100387.69;;;10.07;35.09
26859;BME280;14429;48.346;16.338;2023-04-05T07:55:23;100375.94;;;10.71;40.95
26859;BME280;14429;48.346;16.338;2023-04-05T07:57:48;100372.47;;;10.84;35.81
26859;BME280;14429;48.346;16.338;2023-04-05T08:00:16;100375.72;;;10.89;39.86
26859;BME280;14429;48.346;16.338;2023-04-05T08:02:41;100382.03;;;11.02;39.25
26859;BME280;14429;48.346;16.338;2023-04-05T08:05:07;100368.91;;;10.54;40.11
26859;BME280;14429;48.346;16.338;2023-04-05T08:07:32;100375.88;;;10.86;39.99
26859;BME280;14429;48.346;16.338;2023-04-05T08:09:58;100378.28;;;10.90;38.77
26859;BME280;14429;48.346;16.338;2023-04-05T08:12:24;100372.63;;;10.81;39.16
26859;BME280;14429;48.346;16.338;2023-04-05T08:14:50;100367.53;;;11.05;37.33
26859;BME280;14429;48.346;16.338;2023-04-05T08:17:17;100362.63;;;11.27;39.80
26859;BME280;14429;48.346;16.338;2023-04-05T08:19:42;100356.34;;;11.28;36.63
26859;BME280;14429;48.346;16.338;2023-04-05T08:22:08;100353.66;;;11.28;37.31
26859;BME280;14429;48.346;16.338;2023-04-05T08:24:33;100358.22;;;11.41;36.19
26859;BME280;14429;48.346;16.338;2023-04-05T08:26:58;100351.75;;;11.16;37.37
26859;BME280;14429;48.346;16.338;2023-04-05T08:29:24;100346.88;;;11.52;35.95
26859;BME280;14429;48.346;16.338;2023-04-05T08:31:49;100344.94;;;11.54;39.22
26859;BME280;14429;48.346;16.338;2023-04-05T08:34:16;100342.47;;;11.64;39.00
26859;BME280;14429;48.346;16.338;2023-04-05T08:36:42;100340.47;;;11.82;33.57
26859;BME280;14429;48.346;16.338;2023-04-05T08:39:07;100331.41;;;11.70;32.44
26859;BME280;14429;48.346;16.338;2023-04-05T08:41:35;100334.09;;;11.70;38.74
26859;BME280;14429;48.346;16.338;2023-04-05T08:44:02;100327.41;;;11.77;38.38
26859;BME280;14429;48.346;16.338;2023-04-05T08:46:29;100328.75;;;11.70;39.09
26859;BME280;14429;48.346;16.338;2023-04-05T08:48:55;100327.28;;;11.65;39.14
26859;BME280;14429;48.346;16.338;2023-04-05T08:51:23;100314.25;;;11.74;39.17
26859;BME280;14429;48.346;16.338;2023-04-05T08:53:49;100312.41;;;11.75;38.14
26859;BME280;14429;48.346;16.338;2023-04-05T08:56:15;100303.91;;;11.82;33.17
26859;BME280;14429;48.346;16.338;2023-04-05T08:58:47;100307.63;;;11.93;38.42
26859;BME280;14429;48.346;16.338;2023-04-05T09:01:17;100307.97;;;12.01;37.94
26859;BME280;14429;48.346;16.338;2023-04-05T09:03:44;100304.28;;;11.76;34.80
26859;BME280;14429;48.346;16.338;2023-04-05T09:06:11;100304.59;;;11.85;38.06
26859;BME280;14429;48.346;16.338;2023-04-05T09:08:38;100301.78;;;11.87;38.63
26859;BME280;14429;48.346;16.338;2023-04-05T09:11:05;100298.44;;;11.97;35.80
26859;BME280;14429;48.346;16.338;2023-04-05T09:13:30;100301.00;;;11.99;37.54
26859;BME280;14429;48.346;16.338;2023-04-05T09:15:55;100302.56;;;10.64;30.96
26859;BME280;14429;48.346;16.338;2023-04-05T09:18:21;100301.53;;;11.23;38.37
26859;BME280;14429;48.346;16.338;2023-04-05T09:20:46;100300.53;;;11.53;38.41
26859;BME280;14429;48.346;16.338;2023-04-05T09:23:12;100288.00;;;11.67;36.81
26859;BME280;14429;48.346;16.338;2023-04-05T09:25:40;100300.41;;;11.68;39.18
26859;BME280;14429;48.346;16.338;2023-04-05T09:28:06;100286.75;;;11.72;38.95
26859;BME280;14429;48.346;16.338;2023-04-05T09:30:32;100281.63;;;11.69;35.88
26859;BME280;14429;48.346;16.338;2023-04-05T09:32:57;100288.13;;;11.52;31.44
26859;BME280;14429;48.346;16.338;2023-04-05T09:35:24;100286.94;;;11.28;30.89
26859;BME280;14429;48.346;16.338;2023-04-05T09:37:52;100283.94;;;11.48;35.98
26859;BME280;14429;48.346;16.338;2023-04-05T09:40:17;100265.50;;;11.57;36.16
26859;BME280;14429;48.346;16.338;2023-04-05T09:42:45;100272.47;;;11.46;33.66
26859;BME280;14429;48.346;16.338;2023-04-05T09:45:11;100276.38;;;11.27;33.17
26859;BME280;14429;48.346;16.338;2023-04-05T09:47:36;100279.06;;;11.40;37.26
26859;BME280;14429;48.346;16.338;2023-04-05T09:50:03;100276.00;;;11.32;31.74
26859;BME280;14429;48.346;16.338;2023-04-05T09:52:42;100268.06;;;11.31;32.24
26859;BME280;14429;48.346;16.338;2023-04-05T09:55:08;100278.22;;;11.40;38.76
26859;BME280;14429;48.346;16.338;2023-04-05T09:57:35;100271.50;;;11.05;33.29
26859;BME280;14429;48.346;16.338;2023-04-05T10:00:03;100264.91;;;10.41;29.86
26859;BME280;14429;48.346;16.338;2023-04-05T10:02:34;100269.25;;;9.97;31.49
26859;BME280;14429;48.346;16.338;2023-04-05T10:05:04;100260.34;;;10.56;39.26
26859;BME280;14429;48.346;16.338;2023-04-05T10:07:31;100255.00;;;10.85;33.68
26859;BME280;14429;48.346;16.338;2023-04-05T10:09:56;100259.50;;;10.99;38.98
26859;BME280;14429;48.346;16.338;2023-04-05T10:12:24;100247.97;;;11.26;40.02
26859;BME280;14429;48.346;16.338;2023-04-05T10:14:49;100262.09;;;10.71;32.21
26859;BME280;14429;48.346;16.338;2023-04-05T10:17:21;100254.22;;;10.41;31.80
26859;BME280;14429;48.346;16.338;2023-04-05T10:19:54;100237.78;;;10.48;38.64
26859;BME280;14429;48.346;16.338;2023-04-05T10:22:23;100238.91;;;10.44;37.36
26859;BME280;14429;48.346;16.338;2023-04-05T10:24:55;100236.00;;;10.04;32.52
26859;BME280;14429;48.346;16.338;2023-04-05T10:27:26;100242.09;;;10.22;33.31
26859;BME280;14429;48.346;16.338;2023-04-05T10:30:02;100238.50;;;10.65;41.09
26859;BME280;14429;48.346;16.338;2023-04-05T10:32:43;100232.34;;;10.49;34.77
26859;BME280;14429;48.346;16.338;2023-04-05T10:35:16;100228.75;;;10.50;33.45
26859;BME280;14429;48.346;16.338;2023-04-05T10:37:52;100238.41;;;10.24;40.25
26859;BME280;14429;48.346;16.338;2023-04-05T10:40:21;100241.75;;;10.12;31.57
26859;BME280;14429;48.346;16.338;2023-04-05T10:42:47;100238.84;;;10.01;34.16
26859;BME280;14429;48.346;16.338;2023-04-05T10:45:16;100227.72;;;9.95;31.63
26859;BME280;14429;48.346;16.338;2023-04-05T10:47:46;100232.63;;;10.45;41.38
26859;BME280;14429;48.346;16.338;2023-04-05T10:50:19;100239.00;;;10.14;32.42
26859;BME280;14429;48.346;16.338;2023-04-05T10:52:46;100240.56;;;10.60;40.61
26859;BME280;14429;48.346;16.338;2023-04-05T10:55:12;100222.16;;;10.99;41.01
26859;BME280;14429;48.346;16.338;2023-04-05T10:57:40;100225.56;;;10.87;33.96
26859;BME280;14429;48.346;16.338;2023-04-05T11:00:09;100233.75;;;10.70;32.93
26859;BME280;14429;48.346;16.338;2023-04-05T11:02:35;100221.34;;;10.55;31.44
26859;BME280;14429;48.346;16.338;2023-04-05T11:05:04;100220.72;;;10.37;31.19
26859;BME280;14429;48.346;16.338;2023-04-05T11:07:41;100222.50;;;10.93;40.62
26859;BME280;14429;48.346;16.338;2023-04-05T11:10:14;100208.41;;;10.91;36.13
26859;BME280;14429;48.346;16.338;2023-04-05T11:13:03;100209.56;;;11.01;34.18
26859;BME280;14429;48.346;16.338;2023-04-05T11:15:30;100213.78;;;10.48;29.79
26859;BME280;14429;48.346;16.338;2023-04-05T11:18:01;100210.56;;;10.57;30.46
26859;BME280;14429;48.346;16.338;2023-04-05T11:20:39;100207.28;;;10.81;38.54
26859;BME280;14429;48.346;16.338;2023-04-05T11:23:04;100211.53;;;10.83;34.09
26859;BME280;14429;48.346;16.338;2023-04-05T11:25:30;100202.88;;;11.21;39.74
26859;BME280;14429;48.346;16.338;2023-04-05T11:27:59;100199.53;;;10.90;29.85
26859;BME280;14429;48.346;16.338;2023-04-05T11:30:46;100191.84;;;10.86;30.41
26859;BME280;14429;48.346;16.338;2023-04-05T11:33:11;100197.38;;;10.97;33.05
26859;BME280;14429;48.346;16.338;2023-04-05T11:36:00;100194.31;;;10.89;32.24
26859;BME280;14429;48.346;16.338;2023-04-05T11:38:26;100188.41;;;10.84;30.28
26859;BME280;14429;48.346;16.338;2023-04-05T11:41:04;100187.56;;;10.27;30.86
26859;BME280;14429;48.346;16.338;2023-04-05T11:43:30;100189.94;;;10.31;34.21
26859;BME280;14429;48.346;16.338;2023-04-05T11:45:55;100190.25;;;10.41;30.80
26859;BME280;14429;48.346;16.338;2023-04-05T11:48:21;100190.97;;;10.15;29.84
26859;BME280;14429;48.346;16.338;2023-04-05T11:50:46;100193.47;;;10.88;37.79
26859;BME280;14429;48.346;16.338;2023-04-05T11:53:17;100191.25;;;11.08;40.48
26859;BME280;14429;48.346;16.338;2023-04-05T11:55:45;100184.97;;;10.82;38.09
26859;BME280;14429;48.346;16.338;2023-04-05T11:58:12;100177.22;;;10.50;29.12
26859;BME280;14429;48.346;16.338;2023-04-05T12:00:38;100180.75;;;10.37;29.20
26859;BME280;14429;48.346;16.338;2023-04-05T12:03:03;100174.38;;;10.53;32.04
26859;BME280;14429;48.346;16.338;2023-04-05T12:05:44;100167.16;;;10.55;30.54
26859;BME280;14429;48.346;16.338;2023-04-05T12:08:09;100172.31;;;10.15;29.64
26859;BME280;14429;48.346;16.338;2023-04-05T12:10:36;100169.06;;;10.10;29.68
26859;BME280;14429;48.346;16.338;2023-04-05T12:13:01;100176.66;;;10.45;33.62
26859;BME280;14429;48.346;16.338;2023-04-05T12:15:27;100176.41;;;10.63;33.73
26859;BME280;14429;48.346;16.338;2023-04-05T12:17:52;100175.59;;;10.34;30.67
26859;BME280;14429;48.346;16.338;2023-04-05T12:20:19;100164.53;;;9.97;30.40
26859;BME280;14429;48.346;16.338;2023-04-05T12:22:45;100170.53;;;10.00;30.82
26859;BME280;14429;48.346;16.338;2023-04-05T12:25:12;100168.38;;;10.49;40.75
26859;BME280;14429;48.346;16.338;2023-04-05T12:27:39;100172.34;;;10.29;30.04
26859;BME280;14429;48.346;16.338;2023-04-05T12:30:07;100167.88;;;10.00;30.64
26859;BME280;14429;48.346;16.338;2023-04-05T12:32:35;100164.69;;;10.09;31.03
26859;BME280;14429;48.346;16.338;2023-04-05T12:35:05;100151.16;;;9.98;30.21
26859;BME280;14429;48.346;16.338;2023-04-05T12:37:33;100160.59;;;10.74;39.37
26859;BME280;14429;48.346;16.338;2023-04-05T12:40:01;100158.47;;;10.38;30.82